createdAt,value
2018-01-31T03:02:34.735Z,6.58
2018-01-31T04:32:34.448Z,5.85
2018-01-31T04:47:34.334Z,5.13
2018-01-31T05:02:37.318Z,4.61
2018-01-31T05:17:41.697Z,4.36
2018-01-31T05:32:36.644Z,4.13
2018-01-31T05:47:35.500Z,9.62
2018-01-31T06:02:34.483Z,9.30
2018-01-31T06:17:34.381Z,9.75
2018-01-31T06:32:36.783Z,11.73
2018-01-31T06:47:34.822Z,13.09
2018-01-31T07:02:35.757Z,12.94
2018-01-31T07:17:35.243Z,13.18
2018-01-31T07:32:37.081Z,14.69
2018-01-31T07:47:34.903Z,14.84
2018-01-31T08:02:36.595Z,15.17
2018-01-31T08:17:34.080Z,15.72
2018-01-31T08:32:37.274Z,16.63
2018-01-31T08:47:35.029Z,17.47
2018-01-31T09:02:36.888Z,16.91
2018-01-31T09:17:34.385Z,16.74
2018-01-31T09:32:35.346Z,17.66
2018-01-31T09:47:38.960Z,19.06
2018-01-31T10:02:36.148Z,18.74
2018-01-31T10:17:34.548Z,18.97
2018-01-31T10:32:38.344Z,18.90
2018-01-31T10:47:38.241Z,18.55
2018-01-31T11:02:34.333Z,18.93
2018-01-31T11:17:37.841Z,18.63
2018-01-31T11:32:36.978Z,18.18
2018-01-31T11:47:37.004Z,17.80
2018-01-31T12:02:36.613Z,17.36
2018-01-31T12:17:34.199Z,16.96
2018-01-31T12:32:46.951Z,17.54
2018-01-31T12:47:46.835Z,16.90
2018-01-31T13:17:46.212Z,14.81
2018-01-31T13:32:46.340Z,14.72
2018-01-31T13:47:46.103Z,14.40
2018-01-31T14:02:47.182Z,13.74
2018-01-31T14:17:48.544Z,13.06
2018-01-31T14:32:47.004Z,12.48
2018-01-31T14:47:34.123Z,11.93
2018-01-31T15:02:36.147Z,11.81
2018-01-31T15:17:36.228Z,11.68
2018-01-31T15:32:36.112Z,11.35
2018-01-31T15:47:37.320Z,10.97
2018-01-31T16:02:34.594Z,11.10
2018-01-31T16:17:34.840Z,10.56
2018-01-31T16:32:51.263Z,10.10
2018-01-31T16:47:36.566Z,9.68
2018-01-31T17:02:49.079Z,9.41
2018-01-31T17:17:36.324Z,9.18
2018-01-31T17:32:36.122Z,8.87
2018-01-31T17:47:43.962Z,8.65
2018-01-31T18:02:35.665Z,8.40
2018-01-31T18:17:36.983Z,8.22
2018-01-31T18:32:36.398Z,7.97
2018-01-31T18:47:34.805Z,7.82
2018-01-31T19:17:36.024Z,7.46
2018-01-31T22:17:36.643Z,5.41
2018-01-31T22:32:35.018Z,5.38
2018-01-31T22:47:41.012Z,5.36
2018-01-31T23:02:40.494Z,5.31
2018-01-31T23:17:40.210Z,5.21
2018-01-31T23:32:40.118Z,5.15
2018-01-31T23:47:35.498Z,5.07
